createdAt,value
2019-02-06T00:01:06.510Z,97494.00
2019-02-06T00:06:27.496Z,97501.00
2019-02-06T00:11:48.640Z,97485.00
2019-02-06T00:17:10.034Z,97470.00
2019-02-06T00:22:31.220Z,97486.00
2019-02-06T00:27:52.367Z,97472.00
2019-02-06T00:33:13.483Z,97484.00
2019-02-06T00:38:34.735Z,97479.00
2019-02-06T00:43:55.961Z,97478.00
2019-02-06T00:49:17.147Z,97481.00
2019-02-06T00:54:38.490Z,97487.00
2019-02-06T00:59:59.771Z,97478.00
2019-02-06T01:05:21.195Z,97487.00
2019-02-06T01:10:43.718Z,97491.00
2019-02-06T01:16:05.191Z,97488.00
2019-02-06T01:21:26.091Z,97483.00
2019-02-06T01:26:47.168Z,97475.00
2019-02-06T01:32:08.722Z,97474.00
2019-02-06T01:37:29.767Z,97478.00
2019-02-06T01:42:50.990Z,97463.00
2019-02-06T01:48:12.060Z,97459.00
2019-02-06T01:53:33.314Z,97456.00
2019-02-06T01:58:55.074Z,97453.00
2019-02-06T02:04:16.191Z,97450.00
2019-02-06T02:09:37.356Z,97453.00
2019-02-06T02:14:58.675Z,97455.00
2019-02-06T02:20:24.222Z,97452.00
2019-02-06T02:25:44.955Z,97446.00
2019-02-06T02:31:06.280Z,97433.00
2019-02-06T02:36:27.274Z,97434.00
2019-02-06T02:41:49.951Z,97434.00
2019-02-06T02:47:12.303Z,97427.00
2019-02-06T02:52:33.759Z,97422.00
2019-02-06T02:57:55.196Z,97427.00
2019-02-06T03:03:35.135Z,97417.00
2019-02-06T03:08:56.239Z,97408.00
2019-02-06T03:14:18.191Z,97422.00
2019-02-06T03:19:39.027Z,97416.00
2019-02-06T03:25:00.446Z,97414.00
2019-02-06T03:30:21.417Z,97415.00
2019-02-06T03:35:42.518Z,97421.00
2019-02-06T03:41:04.682Z,97401.00
2019-02-06T03:46:25.795Z,97396.00
2019-02-06T03:51:47.075Z,97399.00
2019-02-06T03:57:08.319Z,97397.00
2019-02-06T04:02:29.466Z,97403.00
2019-02-06T04:07:50.625Z,97410.00
2019-02-06T04:13:11.795Z,97414.00
2019-02-06T04:18:32.994Z,97412.00
2019-02-06T04:23:54.044Z,97423.00
2019-02-06T04:29:15.356Z,97409.00
2019-02-06T04:34:36.518Z,97409.00
2019-02-06T04:39:57.747Z,97401.00
2019-02-06T04:45:19.326Z,97399.00
2019-02-06T04:50:40.839Z,97411.00
2019-02-06T04:56:04.284Z,97405.00
2019-02-06T05:01:25.960Z,97410.00
2019-02-06T05:06:48.773Z,97399.00
2019-02-06T05:12:10.415Z,97408.00
2019-02-06T05:17:31.747Z,97421.00
2019-02-06T05:22:52.931Z,97411.00
2019-02-06T05:28:14.300Z,97430.00
2019-02-06T05:33:36.751Z,97418.00
2019-02-06T05:38:57.949Z,97410.00
2019-02-06T05:44:19.162Z,97404.00
2019-02-06T05:49:43.515Z,97408.00
2019-02-06T05:55:05.245Z,97409.00
2019-02-06T06:00:33.488Z,97408.00
2019-02-06T06:05:54.312Z,97409.00
2019-02-06T06:11:15.328Z,97411.00
2019-02-06T06:16:36.626Z,97423.00
2019-02-06T06:21:57.876Z,97413.00
2019-02-06T06:27:19.095Z,97420.00
2019-02-06T06:32:40.450Z,97411.00
2019-02-06T06:38:02.810Z,97410.00
2019-02-06T06:43:24.262Z,97420.00
2019-02-06T06:48:45.535Z,97431.00
2019-02-06T06:54:06.823Z,97426.00
2019-02-06T06:59:28.081Z,97423.00
2019-02-06T07:04:49.282Z,97422.00
2019-02-06T07:10:12.315Z,97423.00
2019-02-06T07:15:34.377Z,97421.00
2019-02-06T07:20:55.355Z,97431.00
2019-02-06T07:26:16.711Z,97436.00
2019-02-06T07:31:39.111Z,97436.00
2019-02-06T07:37:00.471Z,97446.00
2019-02-06T07:42:21.358Z,97438.00
2019-02-06T07:47:43.506Z,97449.00
2019-02-06T07:53:51.807Z,97459.00
2019-02-06T07:59:20.460Z,97458.00
2019-02-06T08:04:41.766Z,97455.00
2019-02-06T08:10:11.778Z,97463.00
2019-02-06T08:15:36.015Z,97460.00
2019-02-06T08:21:05.548Z,97463.00
2019-02-06T08:26:26.771Z,97466.00
2019-02-06T08:31:47.903Z,97464.00
2019-02-06T08:37:09.347Z,97459.00
2019-02-06T08:42:30.489Z,97461.00
2019-02-06T08:47:52.030Z,97467.00
2019-02-06T08:53:13.415Z,97460.00
2019-02-06T08:58:34.414Z,97469.00
2019-02-06T09:03:55.476Z,97463.00
2019-02-06T09:09:18.422Z,97467.00
2019-02-06T09:14:39.747Z,97456.00
2019-02-06T09:20:01.231Z,97453.00
2019-02-06T09:25:22.863Z,97459.00
2019-02-06T09:30:43.876Z,97467.00
2019-02-06T09:36:10.867Z,97465.00
2019-02-06T09:41:32.103Z,97458.00
2019-02-06T09:46:54.073Z,97449.00
2019-02-06T09:52:15.123Z,97451.00
2019-02-06T09:57:36.479Z,97459.00
2019-02-06T10:02:57.576Z,97459.00
2019-02-06T10:14:55.247Z,97453.00
2019-02-06T10:20:20.653Z,97453.00
2019-02-06T10:25:44.089Z,97454.00
2019-02-06T10:31:05.764Z,97448.00
2019-02-06T10:42:58.708Z,97419.00
2019-02-06T10:48:21.030Z,97419.00
2019-02-06T10:53:48.768Z,97422.00
2019-02-06T10:59:25.334Z,97415.00
2019-02-06T11:04:49.197Z,97417.00
2019-02-06T11:10:24.088Z,97407.00
2019-02-06T11:15:45.143Z,97408.00
2019-02-06T11:21:18.759Z,97404.00
2019-02-06T11:26:40.004Z,97390.00
2019-02-06T11:32:04.123Z,97389.00
2019-02-06T11:37:51.600Z,97384.00
2019-02-06T11:43:32.142Z,97379.00
2019-02-06T12:01:12.415Z,97362.00
2019-02-06T12:06:33.556Z,97351.00
2019-02-06T12:12:03.594Z,97341.00
2019-02-06T12:17:34.201Z,97339.00
2019-02-06T12:22:55.987Z,97328.00
2019-02-06T12:28:16.742Z,97329.00
2019-02-06T12:33:37.984Z,97320.00
2019-02-06T12:38:59.608Z,97312.00
2019-02-06T12:44:47.808Z,97305.00
2019-02-06T12:50:45.515Z,97305.00
2019-02-06T12:56:06.623Z,97301.00
2019-02-06T13:02:12.411Z,97299.00
2019-02-06T13:19:43.536Z,97284.00
2019-02-06T13:25:07.357Z,97275.00
2019-02-06T13:30:37.223Z,97271.00
2019-02-06T13:36:40.486Z,97261.00
2019-02-06T13:42:05.529Z,97253.00
2019-02-06T13:47:29.235Z,97239.00
2019-02-06T13:52:53.485Z,97235.00
2019-02-06T13:58:20.256Z,97232.00
2019-02-06T14:04:10.293Z,97230.00
2019-02-06T14:09:33.050Z,97217.00
2019-02-06T14:15:11.706Z,97209.00
2019-02-06T14:20:42.772Z,97212.00
2019-02-06T14:26:47.750Z,97206.00
2019-02-06T14:32:59.059Z,97191.00
2019-02-06T14:38:55.884Z,97188.00
2019-02-06T14:44:59.400Z,97176.00
2019-02-06T14:50:35.411Z,97163.00
2019-02-06T14:56:33.753Z,97176.00
2019-02-06T15:02:36.684Z,97164.00
2019-02-06T15:08:20.968Z,97163.00
2019-02-06T15:14:06.934Z,97152.00
2019-02-06T15:19:42.476Z,97142.00
2019-02-06T15:25:15.670Z,97145.00
2019-02-06T15:31:16.232Z,97138.00
2019-02-06T15:37:04.835Z,97123.00
2019-02-06T15:42:37.021Z,97124.00
2019-02-06T15:48:40.811Z,97121.00
2019-02-06T15:54:10.143Z,97116.00
2019-02-06T15:59:41.055Z,97103.00
2019-02-06T16:05:21.737Z,97106.00
2019-02-06T16:11:00.302Z,97106.00
2019-02-06T16:16:58.741Z,97098.00
2019-02-06T16:28:47.127Z,97087.00
2019-02-06T16:34:16.612Z,97080.00
2019-02-06T16:39:28.673Z,97082.00
2019-02-06T16:45:03.299Z,97083.00
2019-02-06T16:50:34.250Z,97081.00
2019-02-06T16:56:04.770Z,97080.00
2019-02-06T17:01:49.433Z,97078.00
2019-02-06T17:07:25.951Z,97078.00
2019-02-06T17:13:07.687Z,97074.00
2019-02-06T17:18:26.192Z,97070.00
2019-02-06T17:24:10.127Z,97066.00
2019-02-06T17:30:10.651Z,97068.00
2019-02-06T17:36:06.296Z,97066.00
2019-02-06T17:42:00.498Z,97070.00
2019-02-06T17:47:31.031Z,96804.00
2019-02-06T17:53:17.982Z,97048.00
2019-02-06T17:58:44.143Z,97044.00
2019-02-06T18:03:58.832Z,97044.00
2019-02-06T18:09:13.840Z,97042.00
2019-02-06T18:14:41.668Z,97034.00
2019-02-06T18:19:50.126Z,97029.00
2019-02-06T18:25:10.113Z,97026.00
2019-02-06T18:30:31.635Z,97026.00
2019-02-06T18:35:35.167Z,97022.00
2019-02-06T18:40:41.630Z,97019.00
2019-02-06T18:46:06.045Z,97007.00
2019-02-06T18:51:24.130Z,96996.00
2019-02-06T19:26:31.610Z,96940.00
2019-02-06T19:37:45.022Z,96933.00
2019-02-06T19:54:51.269Z,96912.00
2019-02-06T19:59:54.687Z,96916.00
2019-02-06T20:04:57.531Z,96913.00
2019-02-06T20:10:00.310Z,96900.00
2019-02-06T20:15:04.481Z,96898.00
2019-02-06T20:20:10.319Z,96896.00
2019-02-06T20:25:13.436Z,96892.00
2019-02-06T20:30:23.865Z,96883.00
2019-02-06T20:35:46.832Z,96872.00
2019-02-06T20:47:12.111Z,96866.00
2019-02-06T20:52:14.834Z,96861.00
2019-02-06T20:57:19.273Z,96857.00
2019-02-06T21:02:22.621Z,96851.00
2019-02-06T21:07:26.128Z,96851.00
2019-02-06T21:12:28.682Z,96863.00
2019-02-06T21:17:31.660Z,96854.00
2019-02-06T21:22:34.779Z,96846.00
2019-02-06T21:27:37.383Z,96842.00
2019-02-06T21:32:40.055Z,96845.00
2019-02-06T21:37:43.400Z,96837.00
2019-02-06T21:43:05.708Z,96831.00
2019-02-06T21:48:26.924Z,96823.00
2019-02-06T21:53:51.784Z,96815.00
2019-02-06T21:59:14.014Z,96806.00
2019-02-06T22:04:35.329Z,96790.00
2019-02-06T22:09:56.919Z,96784.00
2019-02-06T22:15:20.539Z,96775.00
2019-02-06T22:20:42.638Z,96761.00
2019-02-06T22:26:03.764Z,96765.00
2019-02-06T22:31:26.764Z,96777.00
2019-02-06T22:36:47.854Z,96768.00
2019-02-06T22:42:09.187Z,96772.00
2019-02-06T22:47:30.212Z,96766.00
2019-02-06T22:52:52.887Z,96766.00
2019-02-06T22:58:22.558Z,96766.00
2019-02-06T23:03:45.628Z,96754.00
2019-02-06T23:09:07.363Z,96746.00
2019-02-06T23:14:28.991Z,96736.00
2019-02-06T23:19:50.087Z,96736.00
2019-02-06T23:25:11.227Z,96726.00
2019-02-06T23:30:33.061Z,96705.00
2019-02-06T23:35:54.403Z,96699.00
2019-02-06T23:41:15.606Z,96698.00
2019-02-06T23:46:36.751Z,96704.00
2019-02-06T23:51:57.959Z,96693.00
2019-02-06T23:57:19.087Z,96688.00
